Flight Track Log - Related Links

Times and Time Zones

All times are in EST time to prevent confusion due to time zone crossing. See the EJA587P flight status page for this flight to view local times or setup timezone preferences in your user account.

Time Position Orientation Groundspeed Altitude Reporting Facility
EST Latitude Longitude Course Direction KTS MPH feet Rate Location/Type
Thu 09:02:38 PM 36.1261 -115.1303 46° Northeast 212 244 4,400  Level Los Angeles Center
Thu 09:03:34 PM 36.1350 -115.0558 82° East 242 278 7,500 3,455 Climbing Los Angeles Center
Thu 09:03:44 PM 36.1367 -115.0392 83° East 251 289 8,200 3,097 Climbing Los Angeles Center
Thu 09:04:36 PM 36.1447 -114.9658 82° East 264 304 10,700 2,947 Climbing Los Angeles Center
Thu 09:05:38 PM 36.1531 -114.8775 83° East 271 312 13,800 2,855 Climbing Los Angeles Center
Thu 09:06:40 PM 36.1658 -114.7803 81° East 283 326 16,600 2,613 Climbing Los Angeles Center
Thu 09:07:42 PM 36.1892 -114.6517 77° East 316 364 19,200 2,226 Climbing Los Angeles Center
Thu 09:08:44 PM 36.1897 -114.5281 90° East 352 405 21,200 2,032 Climbing Los Angeles Center
Thu 09:09:46 PM 36.1911 -114.3936 89° East 381 438 23,400 2,323 Climbing Los Angeles Center
Thu 09:10:48 PM 36.1931 -114.2539 89° East 400 460 26,000 2,516 Climbing Los Angeles Center
Thu 09:11:50 PM 36.2078 -114.1169 82° East 402 463 28,600 2,118 Climbing Los Angeles Center
Thu 09:13:04 PM 36.2242 -113.9817 81° East 399 459 30,800 1,986 Climbing Los Angeles Center
Thu 09:14:18 PM 36.2478 -113.7886 81° East 404 465 33,500 2,162 Climbing Los Angeles Center
Thu 09:15:20 PM 36.2661 -113.6244 82° East 402 463 35,700 1,597 Climbing Los Angeles Center
Thu 09:16:22 PM 36.2817 -113.4911 82° East 395 455 36,800 927 Climbing Los Angeles Center
Thu 09:17:23 PM 36.2975 -113.3522 82° East 402 463 37,600 878 Climbing Los Angeles Center
Thu 09:18:25 PM 36.3189 -113.2058 80° East 414 476 38,600 677 Climbing Los Angeles Center
Thu 09:19:27 PM 36.3678 -113.0783 65° Northeast 412 474 39,000 194 Climbing Los Angeles Center
Thu 09:20:29 PM 36.4172 -112.9414 66° East 430 495 39,000  Level Los Angeles Center
Thu 09:21:31 PM 36.4700 -112.7992 65° Northeast 452 520 39,000  Level Los Angeles Center
Thu 09:22:33 PM 36.5344 -112.6236 65° Northeast 466 536 39,000  Level Los Angeles Center
Thu 09:23:34 PM 36.5889 -112.4744 66° East 474 545 39,000  Level Los Angeles Center
Thu 09:24:36 PM 36.6436 -112.3253 65° Northeast 476 548 39,000  Level Los Angeles Center
Thu 09:25:38 PM 36.6983 -112.1728 66° East 482 555 39,000  Level Los Angeles Center
Thu 09:26:39 PM 36.7436 -112.0503 65° Northeast 486 559 39,000  Level Los Angeles Center
Thu 09:27:41 PM 36.8075 -111.8692 66° East 482 555 39,000  Level Los Angeles Center
Thu 09:28:43 PM 36.8722 -111.6903 66° East 476 548 39,000  Level Los Angeles Center
Thu 09:29:45 PM 36.9253 -111.5414 66° East 474 545 39,000  Level Los Angeles Center
Thu 09:30:47 PM 36.9778 -111.3911 66° East 475 547 39,000  Level Los Angeles Center
Thu 09:31:48 PM 37.0300 -111.2425 66° East 470 541 39,000  Level Los Angeles Center
Thu 09:33:02 PM 37.0914 -111.0631 67° East 469 540 39,000  Level Denver Center
Thu 09:34:04 PM 37.1439 -110.9139 66° East 470 541 39,000  Level Denver Center
Thu 09:35:06 PM 37.2067 -110.7342 66° East 470 541 39,000  Level Denver Center
Thu 09:36:07 PM 37.2581 -110.5819 67° East 475 547 39,000  Level Denver Center
Thu 09:37:09 PM 37.3092 -110.4314 67° East 472 543 39,000  Level Denver Center
Thu 09:38:11 PM 37.3608 -110.2800 67° East 473 544 39,000  Level Denver Center
Thu 09:39:13 PM 37.4075 -110.1425 67° East 472 543 39,000  Level Denver Center
Thu 09:40:15 PM 37.4650 -109.9725 67° East 472 543 39,000  Level Denver Center
Thu 09:41:17 PM 37.5219 -109.8017 67° East 473 544 39,000  Level Denver Center
Thu 09:42:18 PM 37.5708 -109.6561 67° East 472 543 39,000  Level Denver Center
Thu 09:43:20 PM 37.6272 -109.4842 67° East 474 545 39,000  Level Denver Center
Thu 09:44:22 PM 37.6761 -109.3356 67° East 477 549 39,000  Level Denver Center
Thu 09:45:24 PM 37.7247 -109.1883 67° East 475 547 39,000  Level Denver Center
Thu 09:46:26 PM 37.7806 -109.0150 68° East 476 548 39,000  Level Denver Center
Thu 09:47:27 PM 37.8189 -108.8603 73° East 481 554 39,000  Level Denver Center
Thu 09:48:29 PM 37.8411 -108.6697 82° East 486 559 39,000  Level Denver Center
Thu 09:49:31 PM 37.8608 -108.5072 81° East 488 562 39,000  Level Denver Center
Thu 09:50:33 PM 37.8836 -108.3189 81° East 487 560 39,000  Level Denver Center
Thu 09:51:35 PM 37.9033 -108.1581 81° East 485 558 39,000  Level Denver Center
Thu 09:52:37 PM 37.9256 -107.9703 81° East 484 557 39,000  Level Denver Center
Thu 09:53:38 PM 37.9464 -107.8106 81° East 482 555 39,000  Level Denver Center
Thu 09:54:40 PM 37.9653 -107.6489 82° East 483 556 39,000  Level Denver Center
Thu 09:55:42 PM 37.9858 -107.4622 82° East 481 554 39,000  Level Denver Center
Thu 09:56:44 PM 38.0047 -107.3017 81° East 481 554 39,000  Level Denver Center
Thu 09:57:46 PM 38.0258 -107.1167 82° East 483 556 39,000  Level Denver Center
Thu 09:58:47 PM 38.0431 -106.9553 82° East 484 557 39,000  Level Denver Center
Thu 09:59:49 PM 38.0636 -106.7661 82° East 485 558 39,000  Level Denver Center
Thu 10:00:51 PM 38.0808 -106.6050 82° East 483 556 39,000  Level Denver Center
Thu 10:01:52 PM 38.1000 -106.4311 82° East 485 558 39,000  Level Denver Center
Thu 10:02:54 PM 38.1169 -106.2617 83° East 486 559 39,000  Level Denver Center
Thu 10:03:56 PM 38.1361 -106.0756 82° East 487 560 39,000  Level Denver Center
Thu 10:04:58 PM 38.1542 -105.9125 82° East 486 559 39,000  Level Denver Center
Thu 10:05:59 PM 38.1736 -105.7219 83° East 486 559 39,000  Level Denver Center
Thu 10:07:01 PM 38.1894 -105.5556 83° East 494 568 39,000  Level Denver Center
Thu 10:08:03 PM 38.2081 -105.3625 83° East 493 567 39,000  Level Denver Center
Thu 10:09:05 PM 38.2236 -105.1989 83° East 488 562 39,000  Level Denver Center
Thu 10:10:06 PM 38.2394 -105.0333 83° East 489 563 39,000  Level Denver Center
Thu 10:11:08 PM 38.2569 -104.8400 83° East 490 564 39,000  Level Denver Center
Thu 10:12:22 PM 38.2769 -104.6192 83° East 491 565 39,000  Level Denver Center
Thu 10:13:24 PM 38.2917 -104.4517 84° East 493 567 39,000  Level Denver Center
Thu 10:14:26 PM 38.2817 -104.2853 94° East 493 567 39,000  Level Denver Center
Thu 10:15:27 PM 38.2647 -104.0914 96° East 493 567 39,000  Level Denver Center
Thu 10:16:29 PM 38.2500 -103.9256 96° East 491 565 39,000  Level Denver Center
Thu 10:17:31 PM 38.2322 -103.7317 97° East 493 567 39,000  Level Denver Center
Thu 10:18:32 PM 38.2167 -103.5658 97° East 491 565 39,000  Level Denver Center
Thu 10:19:34 PM 38.2019 -103.3989 96° East 494 568 39,000  Level Denver Center
Thu 10:20:36 PM 38.1825 -103.2047 97° East 494 568 39,000  Level Denver Center
Thu 10:21:37 PM 38.1658 -103.0297 97° East 494 568 39,000  Level Denver Center
Thu 10:22:39 PM 38.1494 -102.8647 97° East 492 566 39,000  Level Denver Center
Thu 10:23:41 PM 38.1311 -102.6728 97° East 491 565 39,000  Level Denver Center
Thu 10:24:42 PM 38.1133 -102.5069 98° East 493 567 39,000  Level Denver Center
Thu 10:25:44 PM 38.0933 -102.3150 97° East 491 565 39,000  Level Denver Center
Thu 10:26:46 PM 38.0767 -102.1497 97° East 493 567 39,000  Level Denver Center
Thu 10:27:47 PM 38.0597 -101.9828 97° East 497 572 39,000  Level Denver Center
Thu 10:28:46 PM 38.0411 -101.8136 98° East 501 577 39,000  Level Kansas City Center
Thu 10:29:47 PM 38.0194 -101.6167 98° East 504 580 39,000  Level Kansas City Center
Thu 10:30:48 PM 38.0008 -101.4489 98° East 503 579 39,000  Level Kansas City Center
Thu 10:31:49 PM 37.9789 -101.2508 98° East 505 581 39,000  Level Kansas City Center
Thu 10:32:50 PM 37.9592 -101.0806 98° East 506 582 39,000  Level Kansas City Center
Thu 10:33:52 PM 37.9397 -100.9100 98° East 506 582 39,000  Level Kansas City Center
Thu 10:34:53 PM 37.9203 -100.7372 98° East 510 587 39,000  Level Kansas City Center
Thu 10:35:54 PM 37.9111 -100.5350 93° East 511 588 39,000  Level Kansas City Center
Thu 10:36:55 PM 37.9028 -100.3631 93° East 509 586 39,000 -98 Level Kansas City Center
Thu 10:37:56 PM 37.8950 -100.1908 93° East 510 587 38,800 -738 Descending Kansas City Center
Thu 10:38:57 PM 37.8847 -99.9892 94° East 512 589 37,500 -1,230 Descending Kansas City Center
Thu 10:39:58 PM 37.8758 -99.8139 94° East 518 596 36,300 -1,180 Descending Kansas City Center
Thu 10:40:59 PM 37.8672 -99.6400 94° East 518 596 35,100 -1,525 Descending Kansas City Center
Thu 10:42:00 PM 37.8575 -99.4592 94° East 504 580 33,200 -1,869 Descending Kansas City Center
Thu 10:43:01 PM 37.8492 -99.2817 93° East 506 582 31,300 -2,115 Descending Kansas City Center
Thu 10:44:02 PM 37.8392 -99.1017 94° East 513 590 28,900 -2,410 Descending Kansas City Center
Thu 10:45:03 PM 37.8289 -98.9247 94° East 510 587 26,400 -2,508 Descending Kansas City Center
Thu 10:46:04 PM 37.8197 -98.7550 94° East 495 570 23,800 -2,967 Descending Kansas City Center
Thu 10:46:34 PM 37.8133 -98.6397 94° East 477 549 21,900 -3,200 Descending Kansas City Center
Thu 10:47:04 PM 37.8092 -98.5661 94° East 461 531 20,600 -2,710 Descending Kansas City Center
Thu 10:47:05 PM 37.8075 -98.5589 106° East 476 548 20,500 -2,656 Descending Kansas City Center
Thu 10:48:05 PM 37.8000 -98.4167 94° East 423 487 17,900 -2,656 Descending Kansas City Center
Thu 10:48:06 PM 37.7986 -98.4111 108° East 435 501 17,800 -2,000 Descending Kansas City Center
Thu 10:49:05 PM 37.7897 -98.2781 95° East 394 453 15,900 -1,967 Descending Kansas City Center
Thu 10:49:07 PM 37.7897 -98.2731 90° East 404 465 15,800 -2,066 Descending Kansas City Center
Thu 10:50:06 PM 37.7842 -98.1492 93° East 362 417 13,800 -2,066 Descending Kansas City Center
Thu 10:50:08 PM 37.7831 -98.1444 107° East 375 432 13,700 -1,900 Descending Kansas City Center
Thu 10:51:06 PM 37.7764 -98.0181 94° East 340 391 11,900 -1,672 Descending Kansas City Center
Thu 10:51:09 PM 37.7769 -98.0247 276° West 354 407 12,000 -1,475 Climbing Kansas City Center
Thu 10:52:07 PM 37.7703 -97.9053 94° East 323 372 10,400 -1,475 Descending Kansas City Center
Thu 10:52:10 PM 37.7706 -97.9131 273° West 333 383 10,500 -1,672 Climbing Kansas City Center
Thu 10:53:08 PM 37.7644 -97.8003 94° East 300 345 8,700 -1,574 Descending Kansas City Center
Thu 10:53:11 PM 37.7642 -97.8072 267° West 315 362 8,900 -2,300 Climbing Kansas City Center
Thu 10:54:08 PM 37.7592 -97.7006 93° East 278 320 6,400 -2,262 Descending Kansas City Center
Thu 10:54:12 PM 37.7586 -97.7086 265° West 298 343 6,600 -1,846 Climbing Kansas City Center
Thu 10:55:13 PM 37.7528 -97.6003 94° East 276 318 4,400 -1,405 Descending Kansas City Center
Thu 10:56:03 PM 37.7500 -97.5378 93° East 215 247 4,000 -393 Descending Kansas City Center
Thu 10:56:14 PM 37.7492 -97.5242 94° East 244 281 4,000 -590 Level Kansas City Center
Thu 10:57:04 PM 37.7414 -97.4703 100° East 184 212 3,400 -700 Descending Kansas City Center
Thu 10:57:14 PM 37.7386 -97.4603 109° East 213 245 3,300 -885 Descending Kansas City Center
Thu 10:58:05 PM 37.7200 -97.4233 122° Southeast 138 159 2,500 -984 Descending Kansas City Center
Thu 10:58:15 PM 37.7158 -97.4142 120° Southeast 177 204 2,300 -500 Descending Kansas City Center
Thu 10:59:05 PM 37.6869 -97.4075 170° South 118 136 2,000 -393 Descending Kansas City Center
Thu 10:59:16 PM 37.6828 -97.4061 165° South 143 165 1,900 -333 Descending Kansas City Center
Thu 11:00:17 PM 37.6542 -97.4203 201° Southwest 135 155 1,600 -295 Descending Kansas City Center

Login

Don't have an account? Register now (free) for customized features, flight alerts, and more!